sensor_id;sensor_type;location;lat;lon;timestamp;pressure;altitude;pressure_sealevel;temperature;humidity
69171;BME280;56279;47.902;12.308;2023-03-07T00:01:32;94274.00;;;2.75;73.50
69171;BME280;56279;47.902;12.308;2023-03-07T00:03:35;94279.22;;;2.75;73.47
69171;BME280;56279;47.902;12.308;2023-03-07T00:05:38;94274.25;;;2.74;73.41
69171;BME280;56279;47.902;12.308;2023-03-07T00:07:40;94282.88;;;2.74;73.20
69171;BME280;56279;47.902;12.308;2023-03-07T00:09:41;94279.47;;;2.74;73.54
69171;BME280;56279;47.902;12.308;2023-03-07T00:11:42;94279.47;;;2.74;73.49
69171;BME280;56279;47.902;12.308;2023-03-07T00:13:44;94280.25;;;2.74;73.25
69171;BME280;56279;47.902;12.308;2023-03-07T00:15:45;94278.44;;;2.75;73.37
69171;BME280;56279;47.902;12.308;2023-03-07T00:17:47;94281.06;;;2.75;74.02
69171;BME280;56279;47.902;12.308;2023-03-07T00:19:48;94284.69;;;2.74;74.20
69171;BME280;56279;47.902;12.308;2023-03-07T00:21:49;94287.03;;;2.75;73.73
69171;BME280;56279;47.902;12.308;2023-03-07T00:23:51;94291.47;;;2.75;74.03
69171;BME280;56279;47.902;12.308;2023-03-07T00:26:05;94277.66;;;2.74;73.43
69171;BME280;56279;47.902;12.308;2023-03-07T00:28:07;94284.94;;;2.72;73.78
69171;BME280;56279;47.902;12.308;2023-03-07T00:30:09;94277.13;;;2.72;73.72
69171;BME280;56279;47.902;12.308;2023-03-07T00:32:12;94280.53;;;2.73;74.04
69171;BME280;56279;47.902;12.308;2023-03-07T00:34:14;94278.94;;;2.72;74.24
69171;BME280;56279;47.902;12.308;2023-03-07T00:36:17;94275.31;;;2.73;74.55
69171;BME280;56279;47.902;12.308;2023-03-07T00:38:19;94264.63;;;2.74;73.90
69171;BME280;56279;47.902;12.308;2023-03-07T00:40:20;94272.44;;;2.74;74.25
69171;BME280;56279;47.902;12.308;2023-03-07T00:42:21;94269.84;;;2.74;73.19
69171;BME280;56279;47.902;12.308;2023-03-07T00:44:22;94269.59;;;2.76;73.78
69171;BME280;56279;47.902;12.308;2023-03-07T00:46:26;94264.38;;;2.76;73.74
69171;BME280;56279;47.902;12.308;2023-03-07T00:48:28;94261.53;;;2.77;73.57
69171;BME280;56279;47.902;12.308;2023-03-07T00:50:29;94259.69;;;2.78;73.50
69171;BME280;56279;47.902;12.308;2023-03-07T00:52:32;94249.25;;;2.78;73.40
69171;BME280;56279;47.902;12.308;2023-03-07T00:54:34;94262.06;;;2.79;73.31
69171;BME280;56279;47.902;12.308;2023-03-07T00:56:35;94254.25;;;2.79;73.79
69171;BME280;56279;47.902;12.308;2023-03-07T00:58:37;94250.06;;;2.78;73.08
69171;BME280;56279;47.902;12.308;2023-03-07T01:00:38;94242.25;;;2.78;72.79
69171;BME280;56279;47.902;12.308;2023-03-07T01:02:39;94244.06;;;2.78;72.52
69171;BME280;56279;47.902;12.308;2023-03-07T01:04:41;94239.63;;;2.78;73.20
69171;BME280;56279;47.902;12.308;2023-03-07T01:06:42;94243.03;;;2.79;72.49
69171;BME280;56279;47.902;12.308;2023-03-07T01:08:44;94248.50;;;2.77;73.47
69171;BME280;56279;47.902;12.308;2023-03-07T01:10:47;94235.47;;;2.77;73.20
69171;BME280;56279;47.902;12.308;2023-03-07T01:12:49;94235.47;;;2.77;73.17
69171;BME280;56279;47.902;12.308;2023-03-07T01:14:51;94230.28;;;2.77;73.00
69171;BME280;56279;47.902;12.308;2023-03-07T01:16:54;94227.66;;;2.77;73.40
69171;BME280;56279;47.902;12.308;2023-03-07T01:18:58;94236.25;;;2.78;73.07
69171;BME280;56279;47.902;12.308;2023-03-07T01:21:01;94222.47;;;2.77;73.01
69171;BME280;56279;47.902;12.308;2023-03-07T01:23:04;94229.47;;;2.77;72.96
69171;BME280;56279;47.902;12.308;2023-03-07T01:25:06;94224.00;;;2.78;72.19
69171;BME280;56279;47.902;12.308;2023-03-07T01:27:09;94218.78;;;2.78;72.79
69171;BME280;56279;47.902;12.308;2023-03-07T01:29:11;94216.47;;;2.77;72.79
69171;BME280;56279;47.902;12.308;2023-03-07T01:31:12;94216.47;;;2.77;72.86
69171;BME280;56279;47.902;12.308;2023-03-07T01:33:15;94220.88;;;2.76;72.68
69171;BME280;56279;47.902;12.308;2023-03-07T01:35:16;94215.66;;;2.76;71.97
69171;BME280;56279;47.902;12.308;2023-03-07T01:37:17;94211.25;;;2.77;72.55
69171;BME280;56279;47.902;12.308;2023-03-07T01:39:20;94213.84;;;2.77;72.75
69171;BME280;56279;47.902;12.308;2023-03-07T01:41:36;94217.47;;;2.76;72.27
69171;BME280;56279;47.902;12.308;2023-03-07T01:43:39;94211.50;;;2.75;72.22
69171;BME280;56279;47.902;12.308;2023-03-07T01:47:52;94205.75;;;2.73;72.24
69171;BME280;56279;47.902;12.308;2023-03-07T01:49:54;94207.34;;;2.74;71.61
69171;BME280;56279;47.902;12.308;2023-03-07T01:54:01;94208.88;;;2.75;71.78
69171;BME280;56279;47.902;12.308;2023-03-07T01:56:06;94200.81;;;2.72;72.47
69171;BME280;56279;47.902;12.308;2023-03-07T01:58:10;94205.22;;;2.71;72.09
69171;BME280;56279;47.902;12.308;2023-03-07T02:00:16;94207.56;;;2.68;72.05
69171;BME280;56279;47.902;12.308;2023-03-07T02:02:30;94201.84;;;2.66;71.85
69171;BME280;56279;47.902;12.308;2023-03-07T02:06:54;94198.94;;;2.62;71.87
69171;BME280;56279;47.902;12.308;2023-03-07T02:08:57;94199.97;;;2.61;72.64
69171;BME280;56279;47.902;12.308;2023-03-07T02:10:59;94201.03;;;2.60;72.14
69171;BME280;56279;47.902;12.308;2023-03-07T02:13:01;94195.03;;;2.60;72.53
69171;BME280;56279;47.902;12.308;2023-03-07T02:15:03;94191.63;;;2.59;72.02
69171;BME280;56279;47.902;12.308;2023-03-07T02:17:05;94192.69;;;2.58;72.57
69171;BME280;56279;47.902;12.308;2023-03-07T02:19:42;94198.69;;;2.59;71.65
69171;BME280;56279;47.902;12.308;2023-03-07T02:22:07;94182.28;;;2.58;71.66
69171;BME280;56279;47.902;12.308;2023-03-07T02:24:24;94195.81;;;2.60;72.64
69171;BME280;56279;47.902;12.308;2023-03-07T02:28:45;94175.78;;;2.61;72.30
69171;BME280;56279;47.902;12.308;2023-03-07T02:30:56;94177.84;;;2.59;71.82
69171;BME280;56279;47.902;12.308;2023-03-07T02:33:01;94176.03;;;2.54;71.50
69171;BME280;56279;47.902;12.308;2023-03-07T02:35:16;94178.06;;;2.52;72.11
69171;BME280;56279;47.902;12.308;2023-03-07T02:37:23;94172.34;;;2.50;71.70
69171;BME280;56279;47.902;12.308;2023-03-07T02:39:26;94176.22;;;2.48;71.85
69171;BME280;56279;47.902;12.308;2023-03-07T02:41:33;94168.41;;;2.43;70.88
69171;BME280;56279;47.902;12.308;2023-03-07T02:43:38;94176.22;;;2.38;71.17
69171;BME280;56279;47.902;12.308;2023-03-07T02:45:41;94176.97;;;2.33;71.56
69171;BME280;56279;47.902;12.308;2023-03-07T02:47:43;94175.88;;;2.29;71.05
69171;BME280;56279;47.902;12.308;2023-03-07T02:49:45;94170.66;;;2.24;71.00
69171;BME280;56279;47.902;12.308;2023-03-07T02:51:47;94174.00;;;2.20;71.86
69171;BME280;56279;47.902;12.308;2023-03-07T02:53:48;94170.63;;;2.14;71.58
69171;BME280;56279;47.902;12.308;2023-03-07T02:55:49;94176.81;;;2.08;71.42
69171;BME280;56279;47.902;12.308;2023-03-07T02:57:51;94172.63;;;2.02;71.61
69171;BME280;56279;47.902;12.308;2023-03-07T02:59:53;94182.22;;;1.96;71.38
69171;BME280;56279;47.902;12.308;2023-03-07T03:01:56;94176.97;;;1.91;71.30
69171;BME280;56279;47.902;12.308;2023-03-07T03:03:57;94178.78;;;1.86;71.46
69171;BME280;56279;47.902;12.308;2023-03-07T03:05:59;94175.88;;;1.82;71.22
69171;BME280;56279;47.902;12.308;2023-03-07T03:08:00;94174.56;;;1.80;71.61
69171;BME280;56279;47.902;12.308;2023-03-07T03:10:01;94181.09;;;1.77;71.45
69171;BME280;56279;47.902;12.308;2023-03-07T03:12:07;94183.91;;;1.76;71.74
69171;BME280;56279;47.902;12.308;2023-03-07T03:14:09;94178.72;;;1.76;71.70
69171;BME280;56279;47.902;12.308;2023-03-07T03:16:10;94183.69;;;1.77;71.70
69171;BME280;56279;47.902;12.308;2023-03-07T03:18:13;94185.50;;;1.77;71.93
69171;BME280;56279;47.902;12.308;2023-03-07T03:20:15;94176.09;;;1.76;71.57
69171;BME280;56279;47.902;12.308;2023-03-07T03:22:17;94180.28;;;1.77;71.83
69171;BME280;56279;47.902;12.308;2023-03-07T03:24:21;94181.84;;;1.78;71.37
69171;BME280;56279;47.902;12.308;2023-03-07T03:26:24;94178.72;;;1.76;71.37
69171;BME280;56279;47.902;12.308;2023-03-07T03:28:27;94179.75;;;1.75;71.19
69171;BME280;56279;47.902;12.308;2023-03-07T03:30:29;94187.56;;;1.75;71.33
69171;BME280;56279;47.902;12.308;2023-03-07T03:32:39;94186.50;;;1.76;71.69
69171;BME280;56279;47.902;12.308;2023-03-07T03:34:42;94192.50;;;1.76;71.65
69171;BME280;56279;47.902;12.308;2023-03-07T03:36:45;94189.91;;;1.76;72.07
69171;BME280;56279;47.902;12.308;2023-03-07T03:38:46;94185.50;;;1.77;71.77
69171;BME280;56279;47.902;12.308;2023-03-07T03:40:48;94191.47;;;1.77;72.33
69171;BME280;56279;47.902;12.308;2023-03-07T03:42:52;94185.50;;;1.77;71.08
69171;BME280;56279;47.902;12.308;2023-03-07T03:45:01;94179.25;;;1.78;71.79
69171;BME280;56279;47.902;12.308;2023-03-07T03:47:03;94178.72;;;1.76;71.31
69171;BME280;56279;47.902;12.308;2023-03-07T03:49:06;94184.44;;;1.78;71.93
69171;BME280;56279;47.902;12.308;2023-03-07T03:51:10;94187.81;;;1.78;71.82
69171;BME280;56279;47.902;12.308;2023-03-07T03:53:12;94181.59;;;1.79;71.65
69171;BME280;56279;47.902;12.308;2023-03-07T03:55:14;94177.16;;;1.80;71.34
69171;BME280;56279;47.902;12.308;2023-03-07T03:57:17;94177.97;;;1.80;72.39
69171;BME280;56279;47.902;12.308;2023-03-07T03:59:21;94174.56;;;1.80;72.08
69171;BME280;56279;47.902;12.308;2023-03-07T04:01:25;94183.41;;;1.79;72.02
69171;BME280;56279;47.902;12.308;2023-03-07T04:03:26;94183.69;;;1.77;72.01
69171;BME280;56279;47.902;12.308;2023-03-07T04:05:32;94185.50;;;1.77;72.26
69171;BME280;56279;47.902;12.308;2023-03-07T04:07:33;94185.50;;;1.77;72.04
69171;BME280;56279;47.902;12.308;2023-03-07T04:09:35;94181.31;;;1.76;72.27
69171;BME280;56279;47.902;12.308;2023-03-07T04:11:37;94180.53;;;1.75;72.49
69171;BME280;56279;47.902;12.308;2023-03-07T04:13:39;94181.31;;;1.76;72.74
69171;BME280;56279;47.902;12.308;2023-03-07T04:15:40;94183.91;;;1.76;72.15
69171;BME280;56279;47.902;12.308;2023-03-07T04:17:42;94180.28;;;1.77;73.40
69171;BME280;56279;47.902;12.308;2023-03-07T04:19:44;94177.69;;;1.77;72.84
69171;BME280;56279;47.902;12.308;2023-03-07T04:21:45;94175.63;;;1.79;72.96
69171;BME280;56279;47.902;12.308;2023-03-07T04:23:50;94172.50;;;1.77;73.01
69171;BME280;56279;47.902;12.308;2023-03-07T04:25:59;94176.63;;;1.78;72.94
69171;BME280;56279;47.902;12.308;2023-03-07T04:28:04;94171.69;;;1.76;72.35
69171;BME280;56279;47.902;12.308;2023-03-07T04:30:06;94171.97;;;1.75;72.44
69171;BME280;56279;47.902;12.308;2023-03-07T04:32:07;94172.97;;;1.74;73.00
69171;BME280;56279;47.902;12.308;2023-03-07T04:34:08;94170.88;;;1.71;73.04
69171;BME280;56279;47.902;12.308;2023-03-07T04:36:11;94175.53;;;1.69;72.81
69171;BME280;56279;47.902;12.308;2023-03-07T04:38:14;94171.63;;;1.66;73.18
69171;BME280;56279;47.902;12.308;2023-03-07T04:40:16;94165.09;;;1.64;72.83
69171;BME280;56279;47.902;12.308;2023-03-07T04:42:18;94163.03;;;1.61;73.45
69171;BME280;56279;47.902;12.308;2023-03-07T04:44:20;94162.50;;;1.59;73.43
69171;BME280;56279;47.902;12.308;2023-03-07T04:46:21;94162.72;;;1.57;73.09
69171;BME280;56279;47.902;12.308;2023-03-07T04:48:24;94168.97;;;1.56;73.31
69171;BME280;56279;47.902;12.308;2023-03-07T04:50:25;94165.81;;;1.54;72.93
69171;BME280;56279;47.902;12.308;2023-03-07T04:52:27;94171.25;;;1.53;72.61
69171;BME280;56279;47.902;12.308;2023-03-07T04:54:29;94168.13;;;1.51;73.24
69171;BME280;56279;47.902;12.308;2023-03-07T04:56:32;94165.53;;;1.51;73.10
69171;BME280;56279;47.902;12.308;2023-03-07T04:58:35;94161.88;;;1.47;73.12
69171;BME280;56279;47.902;12.308;2023-03-07T05:00:39;94170.16;;;1.44;72.38
69171;BME280;56279;47.902;12.308;2023-03-07T05:02:41;94160.50;;;1.39;72.67
69171;BME280;56279;47.902;12.308;2023-03-07T05:04:43;94158.41;;;1.36;73.11
69171;BME280;56279;47.902;12.308;2023-03-07T05:10:38;94160.38;;;1.24;73.29
69171;BME280;56279;47.902;12.308;2023-03-07T05:12:41;94164.81;;;1.23;72.89
69171;BME280;56279;47.902;12.308;2023-03-07T05:14:44;94164.03;;;1.23;73.73
69171;BME280;56279;47.902;12.308;2023-03-07T05:16:47;94155.97;;;1.24;73.89
69171;BME280;56279;47.902;12.308;2023-03-07T05:18:48;94153.38;;;1.24;73.32
69171;BME280;56279;47.902;12.308;2023-03-07T05:20:49;94152.88;;;1.27;73.35
69171;BME280;56279;47.902;12.308;2023-03-07T05:22:51;94148.22;;;1.29;72.79
69171;BME280;56279;47.902;12.308;2023-03-07T05:24:54;94151.88;;;1.33;72.49
69171;BME280;56279;47.902;12.308;2023-03-07T05:26:56;94145.41;;;1.36;73.19
69171;BME280;56279;47.902;12.308;2023-03-07T05:28:59;94153.25;;;1.41;72.68
69171;BME280;56279;47.902;12.308;2023-03-07T05:31:02;94149.38;;;1.44;72.98
69171;BME280;56279;47.902;12.308;2023-03-07T05:33:04;94150.44;;;1.48;73.08
69171;BME280;56279;47.902;12.308;2023-03-07T05:35:09;94145.53;;;1.51;72.84
69171;BME280;56279;47.902;12.308;2023-03-07T05:37:10;94144.25;;;1.54;72.92
69171;BME280;56279;47.902;12.308;2023-03-07T05:39:13;94143.19;;;1.55;72.57
69171;BME280;56279;47.902;12.308;2023-03-07T05:41:17;94149.50;;;1.59;71.82
69171;BME280;56279;47.902;12.308;2023-03-07T05:43:19;94140.38;;;1.61;71.62
69171;BME280;56279;47.902;12.308;2023-03-07T05:45:20;94137.28;;;1.64;71.66
69171;BME280;56279;47.902;12.308;2023-03-07T05:47:22;94145.63;;;1.66;71.59
69171;BME280;56279;47.902;12.308;2023-03-07T05:49:23;94140.72;;;1.70;71.75
69171;BME280;56279;47.902;12.308;2023-03-07T05:51:25;94145.66;;;1.71;72.38
69171;BME280;56279;47.902;12.308;2023-03-07T05:53:27;94133.19;;;1.73;72.56
69171;BME280;56279;47.902;12.308;2023-03-07T05:55:29;94131.91;;;1.76;72.54
69171;BME280;56279;47.902;12.308;2023-03-07T05:57:33;94132.97;;;1.80;71.83
69171;BME280;56279;47.902;12.308;2023-03-07T05:59:38;94136.13;;;1.82;71.30
69171;BME280;56279;47.902;12.308;2023-03-07T06:01:40;94137.44;;;1.84;71.05
69171;BME280;56279;47.902;12.308;2023-03-07T06:03:42;94139.78;;;1.86;71.97
69171;BME280;56279;47.902;12.308;2023-03-07T06:05:48;94137.16;;;1.86;71.63
69171;BME280;56279;47.902;12.308;2023-03-07T06:07:49;94139.50;;;1.87;72.14
69171;BME280;56279;47.902;12.308;2023-03-07T06:09:53;94142.38;;;1.86;71.30
69171;BME280;56279;47.902;12.308;2023-03-07T06:11:55;94138.97;;;1.85;72.56
69171;BME280;56279;47.902;12.308;2023-03-07T06:13:57;94136.66;;;1.84;72.09
69171;BME280;56279;47.902;12.308;2023-03-07T06:15:59;94142.06;;;1.82;72.69
69171;BME280;56279;47.902;12.308;2023-03-07T06:18:22;94135.56;;;1.80;71.67
69171;BME280;56279;47.902;12.308;2023-03-07T06:20:24;94135.03;;;1.78;72.15
69171;BME280;56279;47.902;12.308;2023-03-07T06:22:28;94138.69;;;1.77;72.15
69171;BME280;56279;47.902;12.308;2023-03-07T06:24:35;94134.50;;;1.76;71.88
69171;BME280;56279;47.902;12.308;2023-03-07T06:26:38;94137.38;;;1.74;72.38
69171;BME280;56279;47.902;12.308;2023-03-07T06:28:40;94141.75;;;1.69;72.57
69171;BME280;56279;47.902;12.308;2023-03-07T06:30:45;94138.88;;;1.65;73.12
69171;BME280;56279;47.902;12.308;2023-03-07T06:32:47;94134.94;;;1.63;72.12
69171;BME280;56279;47.902;12.308;2023-03-07T06:34:48;94133.63;;;1.60;73.03
69171;BME280;56279;47.902;12.308;2023-03-07T06:36:50;94139.84;;;1.59;72.78
69171;BME280;56279;47.902;12.308;2023-03-07T06:38:53;94142.72;;;1.58;72.98
69171;BME280;56279;47.902;12.308;2023-03-07T06:40:56;94144.28;;;1.59;72.85
69171;BME280;56279;47.902;12.308;2023-03-07T06:42:58;94144.03;;;1.60;72.67
69171;BME280;56279;47.902;12.308;2023-03-07T06:44:59;94147.44;;;1.66;72.70
69171;BME280;56279;47.902;12.308;2023-03-07T06:47:02;94147.47;;;1.71;72.59
69171;BME280;56279;47.902;12.308;2023-03-07T06:49:05;94143.34;;;1.75;71.93
69171;BME280;56279;47.902;12.308;2023-03-07T06:51:07;94134.28;;;1.77;72.27
69171;BME280;56279;47.902;12.308;2023-03-07T06:53:08;94140.03;;;1.84;72.12
69171;BME280;56279;47.902;12.308;2023-03-07T06:55:11;94139.00;;;1.90;71.61
69171;BME280;56279;47.902;12.308;2023-03-07T06:57:12;94139.84;;;1.96;71.69
69171;BME280;56279;47.902;12.308;2023-03-07T06:59:14;94148.69;;;2.00;71.84
69171;BME280;56279;47.902;12.308;2023-03-07T07:01:18;94134.44;;;2.07;71.06
69171;BME280;56279;47.902;12.308;2023-03-07T07:03:21;94145.41;;;2.15;71.33
69171;BME280;56279;47.902;12.308;2023-03-07T07:05:23;94141.50;;;2.22;70.90
69171;BME280;56279;47.902;12.308;2023-03-07T07:07:26;94150.38;;;2.31;71.32
69171;BME280;56279;47.902;12.308;2023-03-07T07:09:29;94131.69;;;2.39;71.09
69171;BME280;56279;47.902;12.308;2023-03-07T07:11:30;94147.59;;;2.48;70.37
69171;BME280;56279;47.902;12.308;2023-03-07T07:13:33;94136.69;;;2.56;70.90
69171;BME280;56279;47.902;12.308;2023-03-07T07:15:37;94142.19;;;2.64;70.10
69171;BME280;56279;47.902;12.308;2023-03-07T07:17:44;94131.28;;;2.72;70.57
69171;BME280;56279;47.902;12.308;2023-03-07T07:19:46;94141.19;;;2.80;70.30
69171;BME280;56279;47.902;12.308;2023-03-07T07:21:47;94138.31;;;2.87;69.96
69171;BME280;56279;47.902;12.308;2023-03-07T07:23:48;94151.13;;;2.94;69.69
69171;BME280;56279;47.902;12.308;2023-03-07T07:25:50;94145.91;;;2.99;69.73
69171;BME280;56279;47.902;12.308;2023-03-07T07:27:51;94146.69;;;3.04;68.72
69171;BME280;56279;47.902;12.308;2023-03-07T07:29:54;94142.81;;;3.12;68.58
69171;BME280;56279;47.902;12.308;2023-03-07T07:31:55;94132.13;;;3.18;68.73
69171;BME280;56279;47.902;12.308;2023-03-07T07:33:57;94138.66;;;3.26;67.84
69171;BME280;56279;47.902;12.308;2023-03-07T07:36:03;94135.78;;;3.32;68.04
69171;BME280;56279;47.902;12.308;2023-03-07T07:38:05;94139.19;;;3.38;68.48
69171;BME280;56279;47.902;12.308;2023-03-07T07:40:07;94138.63;;;3.46;67.58
69171;BME280;56279;47.902;12.308;2023-03-07T07:42:12;94131.34;;;3.53;68.32
69171;BME280;56279;47.902;12.308;2023-03-07T07:44:28;94142.78;;;3.62;67.44
69171;BME280;56279;47.902;12.308;2023-03-07T07:46:34;94137.34;;;3.69;67.34
69171;BME280;56279;47.902;12.308;2023-03-07T07:48:38;94142.28;;;3.75;67.19
69171;BME280;56279;47.902;12.308;2023-03-07T07:50:40;94134.41;;;3.85;66.91
69171;BME280;56279;47.902;12.308;2023-03-07T07:52:41;94132.31;;;3.92;67.38
69171;BME280;56279;47.902;12.308;2023-03-07T07:54:43;94138.31;;;3.98;66.51
69171;BME280;56279;47.902;12.308;2023-03-07T07:56:44;94128.13;;;4.01;66.66
69171;BME280;56279;47.902;12.308;2023-03-07T07:58:46;94126.03;;;4.03;66.31
69171;BME280;56279;47.902;12.308;2023-03-07T08:00:49;94129.97;;;4.06;66.28
69171;BME280;56279;47.902;12.308;2023-03-07T08:02:50;94133.31;;;4.11;66.04
69171;BME280;56279;47.902;12.308;2023-03-07T08:04:51;94124.94;;;4.19;65.87
69171;BME280;56279;47.902;12.308;2023-03-07T08:06:52;94130.69;;;4.27;65.29
69171;BME280;56279;47.902;12.308;2023-03-07T08:08:54;94127.00;;;4.28;65.03
69171;BME280;56279;47.902;12.308;2023-03-07T08:10:56;94126.75;;;4.29;65.47
69171;BME280;56279;47.902;12.308;2023-03-07T08:12:58;94122.56;;;4.28;65.15
69171;BME280;56279;47.902;12.308;2023-03-07T08:14:59;94125.44;;;4.27;65.45
69171;BME280;56279;47.902;12.308;2023-03-07T08:17:00;94120.75;;;4.24;65.20
69171;BME280;56279;47.902;12.308;2023-03-07T08:19:05;94123.66;;;4.22;65.17
69171;BME280;56279;47.902;12.308;2023-03-07T08:21:07;94130.97;;;4.20;65.27
69171;BME280;56279;47.902;12.308;2023-03-07T08:23:08;94121.03;;;4.17;65.05
69171;BME280;56279;47.902;12.308;2023-03-07T08:25:16;94123.91;;;4.15;64.91
69171;BME280;56279;47.902;12.308;2023-03-07T08:27:17;94121.84;;;4.17;64.96
69171;BME280;56279;47.902;12.308;2023-03-07T08:29:19;94114.50;;;4.19;64.84
69171;BME280;56279;47.902;12.308;2023-03-07T08:31:22;94119.97;;;4.23;64.83
69171;BME280;56279;47.902;12.308;2023-03-07T08:33:24;94108.72;;;4.22;64.50
69171;BME280;56279;47.902;12.308;2023-03-07T08:35:27;94111.59;;;4.26;64.95
69171;BME280;56279;47.902;12.308;2023-03-07T08:37:29;94112.38;;;4.32;64.03
69171;BME280;56279;47.902;12.308;2023-03-07T08:39:31;94107.91;;;4.37;64.29
69171;BME280;56279;47.902;12.308;2023-03-07T08:41:32;94121.22;;;4.41;63.71
69171;BME280;56279;47.902;12.308;2023-03-07T08:43:35;94112.34;;;4.37;63.67
69171;BME280;56279;47.902;12.308;2023-03-07T08:45:38;94110.78;;;4.36;63.30
69171;BME280;56279;47.902;12.308;2023-03-07T08:47:40;94118.88;;;4.34;62.95
69171;BME280;56279;47.902;12.308;2023-03-07T08:49:41;94115.50;;;4.34;62.81
69171;BME280;56279;47.902;12.308;2023-03-07T08:51:42;94109.50;;;4.33;63.21
69171;BME280;56279;47.902;12.308;2023-03-07T08:53:46;94108.19;;;4.36;62.83
69171;BME280;56279;47.902;12.308;2023-03-07T08:55:48;94114.16;;;4.41;63.44
69171;BME280;56279;47.902;12.308;2023-03-07T08:57:49;94111.28;;;4.43;62.81
69171;BME280;56279;47.902;12.308;2023-03-07T08:59:51;94101.88;;;4.42;62.90
69171;BME280;56279;47.902;12.308;2023-03-07T09:01:52;94101.06;;;4.46;63.05
69171;BME280;56279;47.902;12.308;2023-03-07T09:03:53;94106.56;;;4.50;63.12
69171;BME280;56279;47.902;12.308;2023-03-07T09:05:54;94105.25;;;4.52;62.35
69171;BME280;56279;47.902;12.308;2023-03-07T09:07:59;94106.28;;;4.51;62.68
69171;BME280;56279;47.902;12.308;2023-03-07T09:10:01;94104.16;;;4.53;62.24
69171;BME280;56279;47.902;12.308;2023-03-07T09:12:02;94096.59;;;4.57;61.73
69171;BME280;56279;47.902;12.308;2023-03-07T09:14:05;94093.69;;;4.63;62.00
69171;BME280;56279;47.902;12.308;2023-03-07T09:16:07;94093.91;;;4.67;61.57
69171;BME280;56279;47.902;12.308;2023-03-07T09:23:18;94082.38;;;4.73;59.91
69171;BME280;56279;47.902;12.308;2023-03-07T09:25:19;94081.59;;;4.72;59.88
69171;BME280;56279;47.902;12.308;2023-03-07T09:27:24;94091.78;;;4.74;60.12
69171;BME280;56279;47.902;12.308;2023-03-07T09:29:26;94094.13;;;4.75;60.12
69171;BME280;56279;47.902;12.308;2023-03-07T09:31:29;94083.41;;;4.77;59.95
69171;BME280;56279;47.902;12.308;2023-03-07T09:38:26;94079.16;;;4.86;59.94
69171;BME280;56279;47.902;12.308;2023-03-07T09:40:28;94071.28;;;4.91;59.53
69171;BME280;56279;47.902;12.308;2023-03-07T09:43:07;94074.91;;;4.95;59.92
69171;BME280;56279;47.902;12.308;2023-03-07T09:45:37;94070.72;;;4.99;59.71
69171;BME280;56279;47.902;12.308;2023-03-07T09:50:39;94075.88;;;5.09;59.50
69171;BME280;56279;47.902;12.308;2023-03-07T09:52:42;94064.88;;;5.12;58.68
69171;BME280;56279;47.902;12.308;2023-03-07T09:56:57;94062.22;;;5.17;58.95
69171;BME280;56279;47.902;12.308;2023-03-07T09:59:10;94061.13;;;5.23;58.85
69171;BME280;56279;47.902;12.308;2023-03-07T10:01:20;94049.28;;;5.31;58.50
69171;BME280;56279;47.902;12.308;2023-03-07T10:03:34;94056.56;;;5.39;58.69
69171;BME280;56279;47.902;12.308;2023-03-07T10:05:42;94051.72;;;5.51;58.99
69171;BME280;56279;47.902;12.308;2023-03-07T10:07:46;94054.75;;;5.63;58.86
69171;BME280;56279;47.902;12.308;2023-03-07T10:09:54;94050.47;;;5.72;58.43
69171;BME280;56279;47.902;12.308;2023-03-07T10:12:12;94053.03;;;5.77;58.53
69171;BME280;56279;47.902;12.308;2023-03-07T10:16:44;94037.06;;;5.79;57.92
69171;BME280;56279;47.902;12.308;2023-03-07T10:21:17;94035.41;;;5.88;58.00
69171;BME280;56279;47.902;12.308;2023-03-07T10:23:30;94021.69;;;5.96;57.50
69171;BME280;56279;47.902;12.308;2023-03-07T10:25:55;94015.06;;;6.03;58.07
69171;BME280;56279;47.902;12.308;2023-03-07T10:28:30;94010.41;;;6.19;58.15
69171;BME280;56279;47.902;12.308;2023-03-07T10:30:31;94006.53;;;6.35;58.15
69171;BME280;56279;47.902;12.308;2023-03-07T10:32:45;94003.00;;;6.45;57.25
69171;BME280;56279;47.902;12.308;2023-03-07T10:35:17;94002.66;;;6.51;57.26
69171;BME280;56279;47.902;12.308;2023-03-07T10:37:26;93992.59;;;6.58;57.05
69171;BME280;56279;47.902;12.308;2023-03-07T10:39:33;93985.44;;;6.64;56.74
69171;BME280;56279;47.902;12.308;2023-03-07T10:41:39;93985.72;;;6.81;56.21
69171;BME280;56279;47.902;12.308;2023-03-07T10:55:43;93957.06;;;7.17;54.70
69171;BME280;56279;47.902;12.308;2023-03-07T10:57:44;93954.34;;;7.22;54.50
69171;BME280;56279;47.902;12.308;2023-03-07T10:59:47;93958.31;;;7.19;54.68
69171;BME280;56279;47.902;12.308;2023-03-07T11:01:57;93946.38;;;7.13;54.18
69171;BME280;56279;47.902;12.308;2023-03-07T11:04:20;93948.91;;;7.18;54.95
69171;BME280;56279;47.902;12.308;2023-03-07T11:06:39;93951.06;;;7.30;54.61
69171;BME280;56279;47.902;12.308;2023-03-07T11:08:44;93945.84;;;7.43;54.07
69171;BME280;56279;47.902;12.308;2023-03-07T11:10:47;93944.66;;;7.49;54.68
69171;BME280;56279;47.902;12.308;2023-03-07T11:12:50;93929.13;;;7.53;54.38
69171;BME280;56279;47.902;12.308;2023-03-07T11:15:36;93921.63;;;7.60;54.25
69171;BME280;56279;47.902;12.308;2023-03-07T11:17:39;93908.31;;;7.56;54.55
69171;BME280;56279;47.902;12.308;2023-03-07T11:19:42;93903.75;;;7.48;54.74
69171;BME280;56279;47.902;12.308;2023-03-07T11:21:54;93904.16;;;7.42;54.69
69171;BME280;56279;47.902;12.308;2023-03-07T11:23:58;93898.22;;;7.36;54.64
69171;BME280;56279;47.902;12.308;2023-03-07T11:26:20;93902.56;;;7.27;55.21
69171;BME280;56279;47.902;12.308;2023-03-07T11:28:29;93891.78;;;7.29;55.11
69171;BME280;56279;47.902;12.308;2023-03-07T11:30:44;93890.34;;;7.23;54.72
69171;BME280;56279;47.902;12.308;2023-03-07T11:42:40;93866.03;;;7.04;54.50
69171;BME280;56279;47.902;12.308;2023-03-07T12:03:32;93825.50;;;7.10;53.93
69171;BME280;56279;47.902;12.308;2023-03-07T12:15:05;93806.25;;;7.14;53.24
69171;BME280;56279;47.902;12.308;2023-03-07T12:58:54;93758.84;;;7.74;51.89
69171;BME280;56279;47.902;12.308;2023-03-07T13:01:22;93751.13;;;7.77;52.64
69171;BME280;56279;47.902;12.308;2023-03-07T13:04:04;93755.78;;;7.80;52.60